SeattleWeather.com

KSEA - Seattle/Metro, Washington, USA
Distance from station: SSW 11mi, 18km
Updated: Thu, 18-Jul-2024 7:53pm PDT
Clear
Clear
 Wind from SW
Wind: SW 9 mph , 15 km/h
Temperature: 77°F , 25°C
Dew Point: 54°F , 12°C
Humidity: 44%
Barometer: 30.06 inHg , 1017.9 hPa
Clouds: Clear
Visibility: 10 miles , 16 km
2024/07/19 02:53 KSEA 190253Z 23008KT 10SM CLR 25/12 A3006 RMK AO2 SLP184 T02500122 53003
KBFI - Seattle/Boeing, Washington, USA
Distance from station: SSW 2mi, 3km
Updated: Thu, 18-Jul-2024 7:53pm PDT
Clear
Clear
 Wind from S
Wind: S 9 mph , 15 km/h
Temperature: 81°F , 27°C
Heat Index: 81°F , 27°C
Dew Point: 57°F , 14°C
Humidity: 45%
Barometer: 30.04 inHg , 1017.3 hPa
Clouds: Clear
Visibility: 10 miles , 16 km
2024/07/19 02:53 KBFI 190253Z 19008KT 10SM CLR 27/14 A3004 RMK AO2 SLP171 T02670139 53003
NWS Forecast for Seattle, WA
National Weather Service Forecast for: Seattle, WA
Issued by: National Weather Service Seattle/Tacoma, WA
Updated: Thu, 18-Jul-2024 3:40pm PDT
 
  Friday

Friday: Mostly Sunny
Mostly Sunny
Saturday

Saturday: Sunny
Sunny
Sunday

Sunday: Mostly Sunny
Mostly Sunny
Monday

Monday: Partly Sunny
Partly Sunny
Tuesday

Tuesday: Mostly Sunny
Mostly Sunny
Wednesday

Wednesday: Sunny
Sunny
Thursday

Thursday: Sunny
Sunny
  Hi 84 °F Hi 87 °F Hi 87 °F Hi 78 °F Hi 75 °F Hi 76 °F Hi 78 °F
 
Tonight

Tonight: Mostly Clear
Mostly Clear
Friday
Night
Friday Night: Clear
Clear
Saturday
Night
Saturday Night: Mostly Clear
Mostly Clear
Sunday
Night
Sunday Night: Partly Cloudy
Partly Cloudy
Monday
Night
Monday Night: Partly Cloudy
Partly Cloudy
Tuesday
Night
Tuesday Night: Mostly Clear
Mostly Clear
Wednesday
Night
Wednesday Night: Mostly Clear
Mostly Clear
 
Lo 61 °F Lo 60 °F Lo 62 °F Lo 60 °F Lo 58 °F Lo 56 °F Lo 55 °F  

 

Tonight
 
Mostly clear, with a low around 61. South southwest wind 3 to 7 mph.
Friday
 
Mostly sunny, with a high near 84. Southwest wind 3 to 7 mph.
Friday Night
 
Clear, with a low around 60. North northeast wind around 6 mph.
Saturday
 
Sunny, with a high near 87. North wind 3 to 9 mph.
Saturday Night
 
Mostly clear, with a low around 62. North northeast wind 1 to 9 mph.
Sunday
 
Mostly sunny, with a high near 87.
Sunday Night
 
Partly cloudy, with a low around 60.
Monday
 
Partly sunny, with a high near 78.
Monday Night
 
Partly cloudy, with a low around 58.
Tuesday
 
Mostly sunny, with a high near 75.
Tuesday Night
 
Mostly clear, with a low around 56.
Wednesday
 
Sunny, with a high near 76.
Wednesday Night
 
Mostly clear, with a low around 55.
Thursday
 
Sunny, with a high near 78.

 

Forecast from NOAA-NWS for Seattle, WA.